DATE METEO

AZI
Time Temp. Dewp. Hum. Wind dir Wind speed Wind gust Bar. 1h Prec. 24h Prec.
00:07 11 9.3 89 229 1.9 3.3 1010.2 0.0000 0.0000
00:17 10.9 9.2 89 229 2.5 3.1 1010.2 0.0000 0.0000
00:27 10.7 9 89 231 2.5 3.3 1010.2 0.0000 0.0000
00:37 10.6 8.9 89 231 2.5 3.3 1010.3 0.0000 0.0000
00:47 10.5 8.8 89 225 2.5 3.1 1010.1 0.0000 0.0000
00:57 10.4 8.7 89 231 2.5 3.3 1010.3 0.0000 0.0000
01:08 10.3 8.6 89 225 2.5 3.3 1010.2 0.0000 0.0000
01:18 10.2 8.6 90 230 2.5 3.3 1010.4 0.0000 0.0000
01:27 10.1 8.5 90 228 2.8 3.6 1010.2 0.0000 0.0000
01:38 10 8.4 90 230 3.1 4.4 1010.4 0.0000 0.0000
01:48 9.9 8.3 90 228 3.1 4.2 1010.3 0.0000 0.0000
01:58 9.8 8.2 90 226 3.1 4.2 1010.2 0.0000 0.0000
02:07 9.7 8.1 90 225 2.8 3.6 1010.3 0.0000 0.0000
02:18 9.7 8.1 90 226 3.1 3.6 1010.3 0.0000 0.0000
02:28 9.6 8 90 228 3.1 4.2 1010.3 0.0000 0.0000
02:38 9.5 7.9 90 230 2.8 3.6 1010.3 0.0000 0.0000
02:48 9.4 7.8 90 228 2.8 3.6 1010.3 0.0000 0.0000
02:58 9.3 7.7 90 226 3.1 4.4 1010.3 0.0000 0.0000
03:08 9.1 7.5 90 229 3.1 4.2 1010.3 0.0000 0.0000
03:18 9 7.4 90 229 3.1 4.2 1010.2 0.0000 0.0000
03:29 8.9 7.5 91 228 3.1 3.6 1010.2 0.0000 0.0000
03:39 8.8 7.4 91 226 3.1 3.6 1010.2 0.0000 0.0000
03:48 8.7 7.3 91 230 3.1 4.2 1010.2 0.0000 0.0000
03:58 8.6 7.2 91 229 3.1 4.2 1010.3 0.0000 0.0000
04:09 8.5 7.1 91 227 3.1 4.2 1010.2 0.0000 0.0000
04:19 8.4 7 91 235 3.1 4.2 1010.2 0.0000 0.0000
04:29 8.3 6.9 91 229 3.1 3.6 1010.2 0.0000 0.0000
04:39 8.3 6.9 91 229 3.1 4.4 1010.2 0.0000 0.0000
04:49 8.2 6.8 91 228 3.1 4.2 1010.1 0.0000 0.0000
04:59 8.3 7.1 92 228 3.1 4.2 1010.1 0.0000 0.0000
05:09 8.3 7.1 92 232 3.1 4.2 1010 0.0000 0.0000
05:20 8.3 7.1 92 228 3.1 4.4 1010 0.0000 0.0000
05:30 8.2 7 92 230 3.1 4.2 1009.9 0.0000 0.0000
05:39 8.1 6.9 92 229 3.1 4.2 1010 0.0000 0.0000
05:50 8 6.8 92 228 3.1 3.6 1009.8 0.0000 0.0000
06:00 8.1 6.9 92 228 3.1 4.2 1010 0.0000 0.0000
06:10 8.1 6.9 92 230 3.1 4.2 1010 0.0000 0.0000
06:19 8 6.8 92 229 3.1 3.6 1010 0.0000 0.0000
06:30 8 6.8 92 229 3.1 3.6 1010.2 0.0000 0.0000
06:40 7.9 6.7 92 231 3.1 4.4 1010.2 0.0000 0.0000
06:50 7.8 6.6 92 229 3.1 4.2 1010.2 0.0000 0.0000
07:00 7.8 6.6 92 228 3.1 4.4 1010.3 0.0000 0.0000
07:10 7.7 6.5 92 231 3.1 4.2 1010.4 0.0000 0.0000
07:20 7.7 6.5 92 229 3.1 4.2 1010.5 0.0000 0.0000
07:30 7.7 6.5 92 230 3.1 4.2 1010.4 0.0000 0.0000
07:41 7.8 6.7 93 229 3.1 4.2 1010.5 0.0000 0.0000
07:51 7.9 6.8 93 229 3.1 4.2 1010.5 0.0000 0.0000
08:01 8.1 7 93 230 3.1 4.2 1010.5 0.0000 0.0000
08:11 8.3 7.2 93 228 3.1 4.2 1010.6 0.0000 0.0000
08:21 8.9 8 94 228 3.1 4.4 1010.7 0.0000 0.0000
08:31 9.8 9 95 229 3.1 3.6 1010.7 0.0000 0.0000
08:41 10.5 9.7 95 226 3.3 4.4 1010.8 0.0000 0.0000
08:52 11.2 10.3 94 222 1.4 2.8 1010.8 0.0000 0.0000
09:01 11.8 10.9 94 48 0.6 1.7 1010.8 0.0000 0.0000
09:11 12.3 11.2 93 45 0.6 1.4 1010.9 0.0000 0.0000
09:21 12.7 11.4 92 225 0.3 1.1 1010.8 0.0000 0.0000
09:32 13.2 11.8 91 0 0.6 1.7 1010.9 0.0000 0.0000
09:42 13.6 12.2 91 226 2.5 3.3 1010.9 0.0000 0.0000
09:46 13.7 12.1 90 229 3.1 6.4 1011.1 0.0000 0.0000
09:56 14.2 12.4 89 216 2.8 5 1011 0.0000 0.0000
10:07 14.6 12.6 88 210 1.9 6.7 1011.1 0.0000 0.0000
10:17 15 12.9 87 220 2.8 5.8 1011 0.0000 0.0000
10:27 15.3 13 86 212 2.5 5.6 1011 0.0000 0.0000
10:37 15.6 13.3 86 214 3.3 6.7 1010.8 0.0000 0.0000
10:52 16.2 13.5 84 200 4.4 10.8 1010.8 0.0000 0.0000
11:02 16.7 13.8 83 213 4.4 10.3 1011 0.0000 0.0000
11:12 17.1 13.8 81 216 4.2 9.4 1011 0.0000 0.0000
11:28 17.6 14.1 80 241 3.3 10.3 1010.9 0.0000 0.0000
11:37 17.9 14 78 251 2.8 7.2 1010.8 0.0000 0.0000
11:48 18.2 14.1 77 2.8 5.6 1010.9 0.0000 0.0000
11:58 18.6 14.1 75 3.1 6.7 1010.8 0.0000 0.0000
12:08 18.9 14.2 74 308 3.3 6.7 1010.8 0.0000 0.0000
12:17 19.1 13.7 71 332 3.3 8.1 1010.7 0.0000 0.0000
12:28 19.4 14 71 2.8 6.1 1010.8 0.0000 0.0000
12:38 19.8 14 69 2.8 6.4 1010.6 0.0000 0.0000
12:48 19.8 13.7 68 56 3.3 7.8 1010.6 0.0000 0.0000
12:58 19.9 13.6 67 36 3.1 8.6 1010.6 0.0000 0.0000
13:08 20.1 13.6 66 223 2.8 5.6 1010.5 0.0000 0.0000
13:16 20.2 13.7 66 358 3.6 10.3 1010.4 0.0000 0.0000
13:26 20.3 13.5 65 74 2.8 5.8 1010.2 0.0000 0.0000
13:36 20.5 13.7 65 270 1.7 4.7 1010.3 0.0000 0.0000
13:46 20.7 13.4 63 230 2.8 5 1010.3 0.0000 0.0000
13:57 20.7 13.4 63 238 2.8 5 1010.2 0.0000 0.0000
14:06 20.8 13.3 62 248 3.3 5.8 1010 0.0000 0.0000
14:16 20.9 13.1 61 242 3.1 5.6 1010 0.0000 0.0000
14:26 21 13.4 62 248 3.1 6.4 1010 0.0000 0.0000
14:37 21.1 13 60 244 3.1 5 1010 0.0000 0.0000
14:47 21.2 13.4 61 244 3.3 5.8 1009.9 0.0000 0.0000
14:56 21.3 13 59 254 3.3 5.8 1009.9 0.0000 0.0000
15:07 21.4 13.3 60 263 3.1 5.6 1009.7 0.0000 0.0000
15:17 21.6 13 58 242 3.1 7.2 1009.6 0.0000 0.0000
15:27 21.6 13 58 241 3.3 7.2 1009.6 0.0000 0.0000
15:37 21.7 13.1 58 237 3.1 6.1 1009.5 0.0000 0.0000
15:47 21.6 13 58 236 4.2 7.5 1009.5 0.0000 0.0000
15:57 21.8 13.2 58 235 4.7 7.5 1009.3 0.0000 0.0000
16:07 21.8 13.2 58 239 4.2 7.5 1009.2 0.0000 0.0000
16:18 21.7 13.1 58 238 2.8 6.7 1009 0.0000 0.0000
16:28 21.8 13.4 59 262 2.8 4.2 1009 0.0000 0.0000
16:38 21.8 13.2 58 267 3.1 5 1008.9 0.0000 0.0000
16:47 21.9 13.3 58 257 3.1 5 1008.9 0.0000 0.0000
16:58 21.9 13.3 58 262 3.3 4.7 1008.8 0.0000 0.0000
17:08 22.3 13.6 58 270 3.1 4.7 1008.6 0.0000 0.0000
17:21 22.6 13.4 56 323 3.1 8.9 1008.7 0.0000 0.0000
17:28 22.7 13.8 57 27 3.3 12.5 1008.5 0.0000 0.0000
17:39 22.9 13.7 56 31 4.2 8.9 1008.5 0.0000 0.0000
17:49 23.1 13.6 55 34 4.4 9.4 1008.5 0.0000 0.0000
17:58 23.2 13.7 55 15 3.3 7.2 1008.3 0.0000 0.0000
18:09 23.4 13.9 55 355 3.3 7.5 1008.2 0.0000 0.0000
18:19 23.3 13.8 55 0 2.8 5 1008.4 0.0000 0.0000
18:29 22.8 13.8 57 201 1.9 5.6 1008.2 0.0000 0.0000
18:32 22.7 13.8 57 198 2.8 14.7 1008.1 0.0000 0.0000
18:43 21.8 13.4 59 225 5.6 9.4 1008 0.0000 0.0000
18:53 21.1 13.5 62 226 4.2 6.1 1008.2 0.0000 0.0000
19:03 20.4 13.4 64 234 3.3 5.8 1008.2 0.0000 0.0000
19:14 19.8 13 65 242 1.1 1.9 1008.1 0.0000 0.0000
19:23 19.2 12.9 67 45 0.3 1.1 1008.2 0.0000 0.0000
19:33 18.6 12.8 69 45 0.3 1.1 1008.3 0.0000 0.0000

STATISTICILE ZILEI

2021-09-18
TEMPERATURA
MEDIA
14.8
MAXIM
23.4
18:09
MINIM
7.7
07:10
PRESIUNEA
MEDIA
1010.0
MAXIM
1011.1
09:46
MINIM
1008.0
18:43
PUNCTUL DE ROUĂ
MEDIA
10.7
MAXIM
14.2
12:08
MINIM
6.5
07:10
UMIDITATEA
MEDIA
79
MAXIM
95
08:31
MINIM
55
17:49
WIND SPEED
MEDIA
2.9
MAXIM
5.6
18:43
WIND GUST
MEDIA
5.2
MAXIM
14.7
18:32
WIND DIRECTION
PREVAILING
SW
69.2%
N
4.3
NE
7.7
E
0.9
SE
0.0
S
2.6
SW
69.2
W
9.4
NW
2.6
PRECIPITATION
RAIN HOUR
0.0
RAIN DAY
0.0
TEMPERATURA (°C)
MINIM
7.7
MAXIM
23.4
MEDIA
14.8
PRESIUNEA (hpa)
MINIM
1008.0
MAXIM
1011.1
MEDIA
1010.0
STATIA METEO